首页
METAR-TAF:

METAR-TAF

机场 :

Kapuskasing, 安大略省, 加拿大

纬度: 49-25N, 经度: 082-28W, 海拔: 227米

当前天气观测

该预报发布于24分钟前的12:00 UTC
风速4节,风向东转东南
温度 0°C
湿度 93%
气压 1008 hPa
能見度: 12.9公里
阴天层高于1400英尺
小雪

METAR: CYYU 191200Z 11004KT 8SM -SN OVC014 M00/M01 A2976 RMK SC8 SLP091

时间: 07:24 (12:24 UTC)

预报

该预报发布于4小时和46分钟前的07:38 UTC
预报有效从19日的 08点(UTC)到 19日的 20点(UTC)
风速5节,风向东转东南
能見度: 9.7公里
散云层高于400英尺
阴天层高于1200英尺
小雪
短暂存在
从 19日的 08点(UTC)到 19日的 20点(UTC)
能見度: 3.2公里
阴天层高于400英尺
小雪, 轻雾
几率 30%
从 19日的 08点(UTC)到 19日的 16点(UTC)
能見度: 1.2公里
阴天层高于300英尺
(小) 冻, 毛毛雨, 轻雾

TAF: CYYU 190738Z 1908/1920 11005KT 6SM -SN SCT004 OVC012 TEMPO 1908/1920 2SM -SN BR OVC004 PROB30 1908/1916 3/4SM -FZDZ BR OVC003 RMK NXT FCST BY 191400Z

超过4000个机场的气象观测和天气预报(METAR&TAF报告)。

可查询的气象台以黄色和红色小点在地图上表示。

将鼠标移到小点上方,可查看气象台名称。

然后点击查看天气观测和预报。

如需切换地图:点击带黑十字的绿色按钮放大地图;点击带横线的绿色按钮缩小地图;或者点击绿色箭头查看邻近地区的地图。


METAR-TAF: